createdAt,value
2022-09-01T00:02:08.855Z,617.37
2022-09-01T00:05:04.964Z,611.47
2022-09-01T00:08:00.798Z,621.83
2022-09-01T00:10:53.371Z,622.47
2022-09-01T00:13:44.967Z,621.47
2022-09-01T00:16:36.133Z,626.30
2022-09-01T00:19:27.936Z,617.40
2022-09-01T00:22:21.521Z,635.90
2022-09-01T00:25:13.170Z,615.27
2022-09-01T00:28:05.561Z,612.33
2022-09-01T00:30:56.634Z,625.37
2022-09-01T00:33:47.084Z,615.77
2022-09-01T00:36:38.017Z,617.23
2022-09-01T00:39:31.467Z,620.47
2022-09-01T00:42:22.367Z,656.03
2022-09-01T00:45:14.300Z,617.03
2022-09-01T00:48:06.667Z,644.97
2022-09-01T00:50:57.253Z,634.60
2022-09-01T00:53:49.366Z,635.17
2022-09-01T00:56:46.528Z,622.13
2022-09-01T00:59:42.203Z,625.27
2022-09-01T01:02:34.581Z,625.30
2022-09-01T01:05:28.486Z,617.57
2022-09-01T01:08:21.948Z,610.07
2022-09-01T01:11:18.173Z,697.23
2022-09-01T01:14:13.596Z,747.17
2022-09-01T01:17:07.841Z,717.70
2022-09-01T01:20:12.946Z,729.37
2022-09-01T01:23:13.903Z,678.17
2022-09-01T01:26:10.620Z,623.87
2022-09-01T01:29:03.171Z,617.97
2022-09-01T01:31:55.998Z,617.37
2022-09-01T01:34:48.822Z,623.60
2022-09-01T01:37:39.452Z,613.40
2022-09-01T01:40:33.492Z,623.60
2022-09-01T01:43:29.369Z,636.33
2022-09-01T01:46:20.703Z,629.17
2022-09-01T01:49:17.527Z,626.67
2022-09-01T01:52:09.256Z,617.13
2022-09-01T01:55:04.512Z,626.60
2022-09-01T01:57:56.513Z,633.57
2022-09-01T02:00:54.453Z,617.53
2022-09-01T02:03:46.742Z,618.60
2022-09-01T02:09:17.706Z,963.27
2022-09-01T02:12:19.782Z,1108.77
2022-09-01T02:15:12.561Z,641.50
2022-09-01T02:18:06.621Z,644.30
2022-09-01T02:21:00.353Z,632.23
2022-09-01T02:24:00.574Z,634.80
2022-09-01T02:26:54.405Z,627.43
2022-09-01T02:29:45.403Z,622.93
2022-09-01T02:32:37.404Z,611.10
2022-09-01T02:35:38.349Z,615.13
2022-09-01T02:38:33.936Z,627.27
2022-09-01T02:41:26.489Z,621.33
2022-09-01T02:44:26.410Z,616.87
2022-09-01T02:47:18.421Z,611.03
2022-09-01T02:50:14.358Z,610.67
2022-09-01T02:53:13.435Z,611.53
2022-09-01T02:56:09.746Z,613.67
2022-09-01T02:59:03.317Z,628.63
2022-09-01T03:01:58.247Z,612.87
2022-09-01T03:07:56.538Z,604.47
2022-09-01T03:10:52.337Z,1066.95
2022-09-01T03:13:44.374Z,616.97
2022-09-01T03:16:42.621Z,608.97
2022-09-01T03:19:44.510Z,600.00
2022-09-01T03:22:36.475Z,590.83
2022-09-01T03:25:31.684Z,587.50
2022-09-01T03:28:26.578Z,590.60
2022-09-01T03:31:20.579Z,590.67
2022-09-01T03:34:13.494Z,588.90
2022-09-01T03:37:09.789Z,593.80
2022-09-01T03:40:01.882Z,592.73
2022-09-01T03:42:54.101Z,589.80
2022-09-01T03:45:47.329Z,589.53
2022-09-01T03:48:37.934Z,594.53
2022-09-01T03:51:31.920Z,636.73
2022-09-01T03:54:25.937Z,594.87
2022-09-01T03:57:16.098Z,589.53
2022-09-01T04:00:20.560Z,592.17
2022-09-01T04:03:17.122Z,580.77
2022-09-01T04:06:10.584Z,584.83
2022-09-01T04:09:03.473Z,596.43
2022-09-01T04:11:53.974Z,598.30
2022-09-01T04:14:44.123Z,586.27
2022-09-01T04:17:46.930Z,578.83
2022-09-01T04:20:48.674Z,578.47
2022-09-01T04:23:39.381Z,574.93
2022-09-01T04:26:31.620Z,577.27
2022-09-01T04:29:27.453Z,572.17
2022-09-01T04:32:21.770Z,578.80
2022-09-01T04:35:17.374Z,580.37
2022-09-01T04:38:11.740Z,574.33
2022-09-01T04:41:02.238Z,585.90
2022-09-01T04:43:57.399Z,579.50
2022-09-01T04:46:56.935Z,580.23
2022-09-01T04:49:47.714Z,583.17
2022-09-01T04:52:37.955Z,579.07
2022-09-01T04:55:31.869Z,578.97
2022-09-01T04:58:22.669Z,585.57
2022-09-01T05:01:18.820Z,577.13
2022-09-01T05:07:16.133Z,583.30
2022-09-01T05:10:07.139Z,580.83
2022-09-01T05:13:00.514Z,584.73
2022-09-01T05:15:50.980Z,589.43
2022-09-01T05:18:45.293Z,604.43
2022-09-01T05:21:35.949Z,509.17
2022-09-01T05:24:32.397Z,593.87
2022-09-01T05:27:24.525Z,595.73
2022-09-01T05:30:21.465Z,591.53
2022-09-01T05:33:21.647Z,599.00
2022-09-01T05:36:15.832Z,600.80
2022-09-01T05:39:10.457Z,602.20
2022-09-01T05:42:05.888Z,601.23
2022-09-01T05:48:09.798Z,626.23
2022-09-01T05:51:22.272Z,605.90
2022-09-01T05:57:32.681Z,608.83
2022-09-01T06:00:21.266Z,608.77
2022-09-01T06:06:11.391Z,1161.77
2022-09-01T06:09:03.526Z,1158.53
2022-09-01T06:11:59.719Z,1170.47
2022-09-01T06:14:51.677Z,1206.65
2022-09-01T06:17:45.645Z,1206.88
2022-09-01T10:13:33.601Z,1403.80
2022-09-01T10:44:32.059Z,1405.53
2022-09-01T13:10:55.607Z,1388.93
2022-09-01T13:26:16.406Z,1388.53
2022-09-01T13:29:14.809Z,1382.75
2022-09-01T13:32:18.519Z,1396.07
2022-09-01T13:35:24.253Z,1392.00
2022-09-01T13:41:36.187Z,1389.60
2022-09-01T13:44:44.823Z,1389.57
2022-09-01T16:36:21.871Z,1378.32
2022-09-01T16:45:26.469Z,1411.57
2022-09-01T17:55:30.547Z,653.23
2022-09-01T18:07:33.254Z,704.70
2022-09-01T18:26:04.845Z,693.20
2022-09-01T19:22:47.828Z,1174.90
2022-09-01T19:57:29.166Z,1160.20
2022-09-01T20:53:56.433Z,830.77
2022-09-01T20:59:55.053Z,837.90
2022-09-01T21:05:41.606Z,770.25
2022-09-01T21:11:38.629Z,1153.53
2022-09-01T21:17:34.995Z,1146.10
2022-09-01T21:20:33.370Z,1078.97
2022-09-01T21:29:20.424Z,1148.77
2022-09-01T21:32:14.409Z,1161.70
2022-09-01T21:35:11.249Z,1144.13
2022-09-01T21:40:48.975Z,1135.17
2022-09-01T21:49:46.869Z,1147.20
2022-09-01T21:52:40.771Z,1141.90
2022-09-01T21:58:40.103Z,1141.50
2022-09-01T22:22:18.696Z,1139.43
2022-09-01T22:37:20.897Z,1152.65
2022-09-01T22:43:14.043Z,1155.67
2022-09-01T22:52:08.371Z,1143.63
2022-09-01T22:57:52.542Z,1142.33
2022-09-01T23:00:49.031Z,1139.10
2022-09-01T23:21:27.473Z,1133.43
2022-09-01T23:24:21.790Z,1117.60
2022-09-01T23:27:23.619Z,1132.90
2022-09-01T23:36:33.739Z,1121.60
2022-09-01T23:51:20.390Z,1109.60
